createdAt,value
2016-10-22T00:04:15.311Z,1005.75
2016-10-22T00:09:11.802Z,1005.80
2016-10-22T00:14:10.422Z,1005.68
2016-10-22T00:19:06.663Z,1005.77
2016-10-22T00:24:05.779Z,1005.78
2016-10-22T00:29:02.303Z,1005.83
2016-10-22T00:33:59.191Z,1005.79
2016-10-22T00:38:55.488Z,1005.84
2016-10-22T00:43:52.204Z,1005.77
2016-10-22T00:48:48.849Z,1005.76
2016-10-22T00:53:46.706Z,1005.67
2016-10-22T00:58:42.807Z,1005.68
2016-10-22T01:03:45.576Z,1005.67
2016-10-22T01:08:42.306Z,1005.65
2016-10-22T01:13:38.811Z,1005.64
2016-10-22T01:18:35.205Z,1005.63
2016-10-22T01:23:32.869Z,1005.69
2016-10-22T01:28:29.639Z,1005.59
2016-10-22T01:33:26.279Z,1005.61
2016-10-22T01:38:22.840Z,1005.61
2016-10-22T01:43:19.295Z,1005.61
2016-10-22T01:48:15.964Z,1005.66
2016-10-22T01:53:12.200Z,1005.57
2016-10-22T01:58:11.044Z,1005.57
2016-10-22T02:03:07.170Z,1005.67
2016-10-22T02:08:03.526Z,1005.57
2016-10-22T02:13:00.074Z,1005.60
2016-10-22T02:17:56.626Z,1005.62
2016-10-22T02:22:53.469Z,1005.59
2016-10-22T02:27:50.293Z,1005.70
2016-10-22T02:32:46.760Z,1005.54
2016-10-22T02:37:43.195Z,1005.51
2016-10-22T02:42:41.976Z,1005.52
2016-10-22T02:47:37.928Z,1005.58
2016-10-22T02:52:34.409Z,1005.46
2016-10-22T02:57:30.986Z,1005.50
2016-10-22T03:02:27.347Z,1005.59
2016-10-22T03:07:23.867Z,1005.52
2016-10-22T03:12:21.039Z,1005.59
2016-10-22T03:17:17.492Z,1005.55
2016-10-22T03:22:13.848Z,1005.52
2016-10-22T03:32:12.988Z,1005.53
2016-10-22T03:37:09.150Z,1005.56
2016-10-22T03:42:05.638Z,1005.70
2016-10-22T03:47:02.408Z,1005.78
2016-10-22T03:51:58.883Z,1005.78
2016-10-22T03:56:55.750Z,1005.79
2016-10-22T04:01:51.833Z,1005.83
2016-10-22T04:06:48.711Z,1005.77
2016-10-22T04:11:45.251Z,1005.79
2016-10-22T04:16:43.092Z,1005.81
2016-10-22T04:21:38.952Z,1005.84
2016-10-22T04:26:35.276Z,1005.83
2016-10-22T04:31:31.761Z,1005.88
2016-10-22T04:36:28.577Z,1005.94
2016-10-22T04:41:25.089Z,1005.94
2016-10-22T04:46:21.526Z,1006.08
2016-10-22T04:51:18.025Z,1006.07
2016-10-22T04:56:14.638Z,1006.03
2016-10-22T05:01:11.119Z,1006.00
2016-10-22T05:06:07.742Z,1006.02
2016-10-22T05:11:04.320Z,1006.07
2016-10-22T05:16:00.885Z,1006.01
2016-10-22T05:20:57.424Z,1006.14
2016-10-22T05:25:53.943Z,1006.05
2016-10-22T05:30:50.524Z,1006.22
2016-10-22T05:35:48.419Z,1006.15
2016-10-22T05:40:44.343Z,1006.16
2016-10-22T05:45:42.149Z,1006.25
2016-10-22T05:50:38.950Z,1006.30
2016-10-22T05:55:36.495Z,1006.34
2016-10-22T06:00:32.586Z,1006.39
2016-10-22T06:05:30.546Z,1006.46
2016-10-22T06:10:26.606Z,1006.50
2016-10-22T06:15:23.986Z,1006.48
2016-10-22T06:20:20.456Z,1006.46
2016-10-22T06:25:17.197Z,1006.44
2016-10-22T06:30:14.936Z,1006.50
2016-10-22T06:35:11.159Z,1006.55
2016-10-22T06:40:09.108Z,1006.51
2016-10-22T06:45:05.518Z,1006.63
2016-10-22T06:50:02.087Z,1006.61
2016-10-22T06:54:58.563Z,1006.69
2016-10-22T06:59:55.017Z,1006.66
2016-10-22T07:04:52.796Z,1006.84
2016-10-22T07:09:48.826Z,1006.81
2016-10-22T07:14:45.370Z,1006.87
2016-10-22T07:19:41.945Z,1006.94
2016-10-22T07:24:38.632Z,1006.98
2016-10-22T07:29:34.697Z,1006.96
2016-10-22T07:34:31.327Z,1006.98
2016-10-22T07:39:28.255Z,1007.01
2016-10-22T07:44:24.783Z,1007.05
2016-10-22T07:49:21.182Z,1007.07
2016-10-22T07:54:17.924Z,1007.12
2016-10-22T07:59:14.524Z,1007.19
2016-10-22T08:04:10.984Z,1007.17
2016-10-22T08:09:07.767Z,1007.22
2016-10-22T08:14:04.051Z,1007.16
2016-10-22T08:19:01.238Z,1007.19
2016-10-22T08:23:58.523Z,1007.22
2016-10-22T08:28:54.739Z,1007.25
2016-10-22T08:33:51.623Z,1007.15
2016-10-22T08:38:48.183Z,1007.14
2016-10-22T08:43:45.023Z,1007.15
2016-10-22T08:48:41.785Z,1007.12
2016-10-22T08:53:39.802Z,1007.26
2016-10-22T08:58:36.610Z,1007.30
2016-10-22T09:03:33.191Z,1007.33
2016-10-22T09:08:30.940Z,1007.38
2016-10-22T09:13:27.708Z,1007.38
2016-10-22T09:18:24.257Z,1007.46
2016-10-22T09:23:21.142Z,1007.44
2016-10-22T09:28:18.563Z,1007.47
2016-10-22T09:33:14.922Z,1007.50
2016-10-22T09:38:11.949Z,1007.51
2016-10-22T09:43:08.722Z,1007.50
2016-10-22T09:48:05.391Z,1007.42
2016-10-22T09:53:02.012Z,1007.57
2016-10-22T09:57:59.460Z,1007.48
2016-10-22T10:02:56.698Z,1007.51
2016-10-22T10:07:53.336Z,1007.53
2016-10-22T10:12:50.256Z,1007.51
2016-10-22T10:17:46.743Z,1007.52
2016-10-22T10:22:43.389Z,1007.56
2016-10-22T10:27:42.906Z,1007.62
2016-10-22T10:32:38.671Z,1007.54
2016-10-22T10:37:34.848Z,1007.64
2016-10-22T10:42:31.579Z,1007.65
2016-10-22T10:47:29.001Z,1007.57
2016-10-22T10:52:25.517Z,1007.55
2016-10-22T10:57:22.223Z,1007.58
2016-10-22T11:02:19.082Z,1007.65
2016-10-22T11:07:15.522Z,1007.60
2016-10-22T11:12:14.625Z,1007.60
2016-10-22T11:17:10.937Z,1007.54
2016-10-22T11:22:07.796Z,1007.61
2016-10-22T11:27:04.751Z,1007.61
2016-10-22T11:32:02.429Z,1007.62
2016-10-22T11:36:58.754Z,1007.63
2016-10-22T11:41:57.799Z,1007.62
2016-10-22T11:46:53.758Z,1007.64
2016-10-22T11:51:50.593Z,1007.72
2016-10-22T11:56:47.080Z,1007.73
2016-10-22T12:01:43.786Z,1007.65
2016-10-22T12:06:40.350Z,1007.74
2016-10-22T12:11:36.742Z,1007.74
2016-10-22T12:16:33.810Z,1007.65
2016-10-22T12:21:30.573Z,1007.78
2016-10-22T12:26:26.771Z,1007.68
2016-10-22T12:31:24.294Z,1007.72
2016-10-22T12:36:20.932Z,1007.73
2016-10-22T12:41:18.569Z,1007.70
2016-10-22T12:46:15.094Z,1007.64
2016-10-22T12:51:14.357Z,1007.58
2016-10-22T12:56:11.098Z,1007.65
2016-10-22T13:01:07.432Z,1007.69
2016-10-22T13:06:04.091Z,1007.62
2016-10-22T13:11:00.536Z,1007.72
2016-10-22T13:15:57.970Z,1007.66
2016-10-22T13:20:54.693Z,1007.60
2016-10-22T13:30:56.085Z,1007.58
2016-10-22T13:35:51.858Z,1007.61
2016-10-22T13:40:47.949Z,1007.71
2016-10-22T13:45:44.732Z,1007.68
2016-10-22T13:50:41.166Z,1007.69
2016-10-22T13:55:40.461Z,1007.76
2016-10-22T14:00:36.517Z,1007.80
2016-10-22T14:05:34.152Z,1007.76
2016-10-22T14:10:30.958Z,1007.76
2016-10-22T14:15:29.270Z,1007.72
2016-10-22T14:20:25.639Z,1007.77
2016-10-22T14:25:22.101Z,1007.80
2016-10-22T14:30:18.687Z,1007.88
2016-10-22T14:35:15.001Z,1007.88
2016-10-22T14:40:11.426Z,1007.87
2016-10-22T14:45:07.812Z,1007.85
2016-10-22T14:50:06.663Z,1007.83
2016-10-22T14:55:03.883Z,1007.84
2016-10-22T14:59:59.906Z,1007.83
2016-10-22T15:04:56.522Z,1007.84
2016-10-22T15:09:52.769Z,1007.80
2016-10-22T15:14:49.294Z,1007.81
2016-10-22T15:19:45.785Z,1007.89
2016-10-22T15:24:42.364Z,1007.99
2016-10-22T15:29:39.979Z,1007.86
2016-10-22T15:34:36.235Z,1007.85
2016-10-22T15:39:32.620Z,1007.90
2016-10-22T15:44:29.095Z,1007.97
2016-10-22T15:49:25.552Z,1007.95
2016-10-22T15:54:21.791Z,1008.00
2016-10-22T15:59:20.918Z,1008.00
2016-10-22T16:04:16.501Z,1008.04
2016-10-22T16:09:13.771Z,1008.12
2016-10-22T16:14:09.962Z,1008.07
2016-10-22T16:19:06.718Z,1008.03
2016-10-22T16:24:03.246Z,1008.07
2016-10-22T16:28:59.494Z,1008.25
2016-10-22T16:33:55.894Z,1008.22
2016-10-22T16:38:52.379Z,1008.24
2016-10-22T16:43:49.352Z,1008.25
2016-10-22T16:48:45.858Z,1008.30
2016-10-22T16:53:43.534Z,1008.30
2016-10-22T16:58:39.813Z,1008.39
2016-10-22T17:03:36.250Z,1008.44
2016-10-22T17:08:32.488Z,1008.38
2016-10-22T17:13:29.082Z,1008.37
2016-10-22T17:18:28.190Z,1008.46
2016-10-22T17:23:24.716Z,1008.46
2016-10-22T17:28:21.037Z,1008.49
2016-10-22T17:33:17.335Z,1008.50
2016-10-22T17:38:13.858Z,1008.50
2016-10-22T17:43:09.932Z,1008.44
2016-10-22T17:48:06.421Z,1008.48
2016-10-22T17:53:02.811Z,1008.46
2016-10-22T17:57:59.279Z,1008.42
2016-10-22T18:02:55.809Z,1008.44
2016-10-22T18:07:52.280Z,1008.50
2016-10-22T18:12:48.826Z,1008.49
2016-10-22T18:17:45.101Z,1008.48
2016-10-22T18:22:41.645Z,1008.39
2016-10-22T18:27:38.004Z,1008.53
2016-10-22T18:32:34.822Z,1008.46
2016-10-22T18:37:31.101Z,1008.57
2016-10-22T18:42:27.344Z,1008.57
2016-10-22T18:47:24.061Z,1008.55
2016-10-22T18:52:20.502Z,1008.63
2016-10-22T18:57:16.945Z,1008.62
2016-10-22T19:02:13.359Z,1008.70
2016-10-22T19:07:12.309Z,1008.60
2016-10-22T19:12:08.198Z,1008.65
2016-10-22T19:17:04.664Z,1008.67
2016-10-22T19:22:01.020Z,1008.67
2016-10-22T19:26:57.602Z,1008.68
2016-10-22T19:31:54.129Z,1008.68
2016-10-22T19:36:50.570Z,1008.65
2016-10-22T19:41:46.902Z,1008.68
2016-10-22T19:46:43.255Z,1008.69
2016-10-22T19:51:39.705Z,1008.63
2016-10-22T19:56:36.257Z,1008.66
2016-10-22T20:01:32.693Z,1008.59
2016-10-22T20:06:29.254Z,1008.58
2016-10-22T20:11:26.264Z,1008.54
2016-10-22T20:16:23.245Z,1008.52
2016-10-22T20:21:19.736Z,1008.40
2016-10-22T20:26:16.157Z,1008.49
2016-10-22T20:31:12.733Z,1008.34
2016-10-22T20:36:09.093Z,1008.35
2016-10-22T20:41:06.713Z,1008.32
2016-10-22T20:46:02.865Z,1008.27
2016-10-22T20:51:00.469Z,1008.29
2016-10-22T20:55:56.648Z,1008.26
2016-10-22T21:00:53.068Z,1008.31
2016-10-22T21:05:49.455Z,1008.22
2016-10-22T21:10:47.030Z,1008.22
2016-10-22T21:15:42.982Z,1008.34
2016-10-22T21:20:39.328Z,1008.40
2016-10-22T21:25:35.720Z,1008.33
2016-10-22T21:30:31.668Z,1008.47
2016-10-22T21:35:28.019Z,1008.40
2016-10-22T21:40:24.567Z,1008.40
2016-10-22T21:45:21.027Z,1008.49
2016-10-22T21:50:17.448Z,1008.43
2016-10-22T21:55:14.649Z,1008.46
2016-10-22T22:00:11.228Z,1008.46
2016-10-22T22:05:08.589Z,1008.45
2016-10-22T22:10:06.677Z,1008.44
2016-10-22T22:15:04.988Z,1008.39
2016-10-22T22:20:00.997Z,1008.52
2016-10-22T22:24:57.555Z,1008.43
2016-10-22T22:29:54.670Z,1008.42
2016-10-22T22:34:50.881Z,1008.35
2016-10-22T22:39:47.291Z,1008.38
2016-10-22T22:44:43.948Z,1008.32
2016-10-22T22:49:40.272Z,1008.35
2016-10-22T22:54:36.650Z,1008.28
2016-10-22T22:59:33.196Z,1008.35
2016-10-22T23:04:29.533Z,1008.43
2016-10-22T23:09:25.914Z,1008.40
2016-10-22T23:14:22.495Z,1008.36
2016-10-22T23:19:19.002Z,1008.22
2016-10-22T23:24:15.656Z,1008.24
2016-10-22T23:29:13.527Z,1008.27
2016-10-22T23:34:09.556Z,1008.26
2016-10-22T23:39:06.040Z,1008.33
2016-10-22T23:44:02.338Z,1008.28
2016-10-22T23:48:59.222Z,1008.24
2016-10-22T23:53:55.434Z,1008.27
2016-10-22T23:58:51.782Z,1008.29
